March ARB Airport
KRIV : now visible

Airfield :











YOU CAN JOIN US ON...

 
LOGIN :

Register | Disclaimer

   EN    FR    IT 

 









Legend :    VFR   Marginal VFR   IFR   Intensive IFR   Very Intensive IFR
Visi :
Ceiling :
>= 8 km
>= 3000ft
5 to 8 km
1000 to 3000 ft
1500m to 5 km
500 to 1000 ft
800 to 1500m
200 to 500 ft
< 800m
< 200 ft
Symbols :   Thunderstorms  Fog  Heavy snow  Heavy precipitations  Wind > 20 kt






- Airport Elevation : 1536 ft


KRIV - March ARB

CURRENT METAR :
  • 150728Z AUTO 14003KT 10SM OVC007 11/11 A2991 RMK AO2 SLP127

EXPIRED METARs :
  • 150658Z 00000KT 10SM BKN006 BKN012 OVC020 11/11 A2992 RMK AO2A SLP130 T01080108
  • 150558Z 12005KT 10SM SCT006 BKN010 BKN020 11/11 A2992 RMK AO2A SLP130 T01100110 10138 20089 52009
  • 150521Z 07003KT 10SM SCT006 BKN010 BKN020 11/11 A2992 RMK AO2A SLP130
  • 150458Z 03003KT 10SM BKN010 OVC020 10/10 A2991 RMK AO2A SLP128 T01000100
  • 150441Z 00000KT 10SM BKN010 BKN020 09/09 A2990 RMK AO2A SLP124

TAF COR TAF KRIV
Valid from the 15 at 07:00 until the 16 at 10:00 UTC


150705Z 1507/1610 17005KT 9999 BKN007 BKN010 OVC020 QNH2990INS
TEMPO 1507/1512 VCSH SCT007 BKN012
BECMG 1518/1519 31010G15KT 9999 SKC QNH2999INS
BECMG 1601/1602 VRB05KT 9999 SKC QNH3003INS TX15/1522Z TN06/1512Z



MET'MAP, your aeronautical weather chart ! - Copyright ORBIFLY December 2007 - Disclaimer

ORBIFLY MET'MAP TEAM :

Programming & Development : Alexandra Zaïnal
Concept & original design : Baudouin d'Aumeries
Assistance for programming : Marc-Olivier Méhu
Technical & hardware support : Manuel Goepfert

Contact : metmap@orbifly.com




SOURCES & CREDITS :

   NOAA       Earth
Advisory